createdAt,value
2018-12-25T00:04:38.283Z,100402.42
2018-12-25T00:09:44.020Z,100410.94
2018-12-25T00:14:50.022Z,100412.59
2018-12-25T00:19:55.830Z,100414.88
2018-12-25T00:25:01.564Z,100406.59
2018-12-25T00:30:09.585Z,100411.35
2018-12-25T00:35:16.815Z,100415.59
2018-12-25T00:40:22.636Z,100415.74
2018-12-25T00:45:28.823Z,100423.46
2018-12-25T00:50:36.262Z,100425.61
2018-12-25T00:55:42.422Z,100434.71
2018-12-25T01:00:48.236Z,100425.00
2018-12-25T01:05:54.047Z,100435.18
2018-12-25T01:11:05.647Z,100417.95
2018-12-25T01:16:11.832Z,100409.61
2018-12-25T01:21:18.424Z,100416.42
2018-12-25T01:26:24.181Z,100418.94
2018-12-25T01:31:30.032Z,100420.68
2018-12-25T01:36:35.887Z,100421.03
2018-12-25T01:41:41.658Z,100427.33
2018-12-25T01:46:47.490Z,100422.95
2018-12-25T01:51:53.268Z,100423.49
2018-12-25T01:56:59.421Z,100429.17
2018-12-25T02:02:05.296Z,100436.50
2018-12-25T02:07:11.447Z,100432.36
2018-12-25T02:12:17.262Z,100439.31
2018-12-25T02:17:23.484Z,100428.27
2018-12-25T02:22:29.371Z,100419.83
2018-12-25T02:27:35.257Z,100437.09
2018-12-25T02:32:41.134Z,100440.59
2018-12-25T02:37:46.916Z,100433.38
2018-12-25T02:42:52.668Z,100404.03
2018-12-25T02:47:58.808Z,100424.66
2018-12-25T02:53:09.058Z,100412.52
2018-12-25T02:58:14.853Z,100410.61
2018-12-25T03:08:24.625Z,100406.74
2018-12-25T03:13:30.375Z,100403.19
2018-12-25T03:18:36.232Z,100412.88
2018-12-25T03:23:42.838Z,100401.80
2018-12-25T03:28:48.647Z,100405.68
2018-12-25T03:33:54.734Z,100388.52
2018-12-25T03:39:00.586Z,100379.30
2018-12-25T03:44:07.428Z,100387.23
2018-12-25T03:49:14.929Z,100386.88
2018-12-25T03:54:20.957Z,100380.84
2018-12-25T03:59:28.099Z,100389.41
2018-12-25T04:04:34.106Z,100388.08
2018-12-25T04:09:40.095Z,100389.53
2018-12-25T04:14:45.922Z,100383.19
2018-12-25T04:19:51.787Z,100381.01
2018-12-25T04:24:57.577Z,100375.72
2018-12-25T04:30:05.941Z,100376.94
2018-12-25T04:35:11.986Z,100366.90
2018-12-25T04:40:17.839Z,100381.95
2018-12-25T04:45:23.649Z,100400.26
2018-12-25T04:50:29.869Z,100406.00
2018-12-25T04:55:35.984Z,100403.69
2018-12-25T05:00:41.744Z,100410.05
2018-12-25T05:05:47.551Z,100402.92
2018-12-25T05:10:53.481Z,100404.95
2018-12-25T05:15:59.342Z,100405.83
2018-12-25T05:21:05.717Z,100409.00
2018-12-25T05:26:12.224Z,100407.69
2018-12-25T05:31:17.988Z,100400.77
2018-12-25T05:36:23.754Z,100404.00
2018-12-25T05:41:29.711Z,100403.16
2018-12-25T05:46:35.465Z,100408.30
2018-12-25T05:51:41.309Z,100410.84
2018-12-25T05:56:48.264Z,100422.93
2018-12-25T06:01:54.119Z,100417.38
2018-12-25T06:07:00.051Z,100430.29
2018-12-25T06:12:05.679Z,100427.52
2018-12-25T06:17:11.467Z,100429.35
2018-12-25T06:22:17.696Z,100428.90
2018-12-25T06:27:23.632Z,100417.70
2018-12-25T06:32:29.484Z,100413.59
2018-12-25T06:37:35.317Z,100406.77
2018-12-25T06:42:41.203Z,100405.73
2018-12-25T06:47:47.208Z,100410.34
2018-12-25T06:52:53.116Z,100417.83
2018-12-25T06:58:00.666Z,100416.59
2018-12-25T07:03:06.775Z,100416.03
2018-12-25T07:08:15.089Z,100427.33
2018-12-25T07:13:20.929Z,100408.34
2018-12-25T07:18:27.079Z,100396.11
2018-12-25T07:28:38.019Z,100404.41
2018-12-25T07:33:43.871Z,100403.88
2018-12-25T07:38:49.769Z,100413.53
2018-12-25T07:43:55.539Z,100413.41
2018-12-25T07:49:02.959Z,100400.63
2018-12-25T07:54:08.995Z,100388.73
2018-12-25T07:59:14.844Z,100374.02
2018-12-25T08:04:20.621Z,100381.42
2018-12-25T08:09:26.448Z,100388.72
2018-12-25T08:14:32.229Z,100378.98
2018-12-25T08:19:37.997Z,100357.17
2018-12-25T08:24:43.816Z,100367.08
2018-12-25T08:29:50.334Z,100374.89
2018-12-25T08:34:59.590Z,100379.22
2018-12-25T08:40:08.358Z,100377.03
2018-12-25T08:45:14.543Z,100378.77
2018-12-25T08:50:20.834Z,100360.94
2018-12-25T08:55:26.892Z,100376.22
2018-12-25T09:00:34.344Z,100383.83
2018-12-25T09:05:45.493Z,100363.95
2018-12-25T09:10:51.774Z,100393.03
2018-12-25T09:15:57.590Z,100381.31
2018-12-25T09:21:05.380Z,100376.30
2018-12-25T09:26:11.258Z,100387.02
2018-12-25T09:31:17.652Z,100391.23
2018-12-25T09:36:23.429Z,100411.44
2018-12-25T09:41:29.295Z,100415.31
2018-12-25T09:46:35.555Z,100442.81
2018-12-25T09:51:41.369Z,100436.63
2018-12-25T09:56:49.306Z,100431.55
2018-12-25T10:01:55.089Z,100421.28
2018-12-25T10:07:01.004Z,100403.41
2018-12-25T10:12:09.381Z,100401.15
2018-12-25T10:17:14.871Z,100402.06
2018-12-25T10:22:21.329Z,100417.00
2018-12-25T10:27:27.657Z,100417.81
2018-12-25T10:32:34.493Z,100409.48
2018-12-25T10:37:40.708Z,100413.64
2018-12-25T10:42:46.937Z,100393.95
2018-12-25T10:47:52.838Z,100400.33
2018-12-25T10:52:59.946Z,100391.92
2018-12-25T10:58:08.763Z,100382.88
2018-12-25T11:04:52.823Z,100370.70
2018-12-25T11:09:58.744Z,100352.64
2018-12-25T11:15:06.649Z,100361.34
2018-12-25T11:20:12.515Z,100356.98
2018-12-25T11:25:18.389Z,100348.86
2018-12-25T11:30:24.151Z,100340.06
2018-12-25T11:35:29.958Z,100345.66
2018-12-25T11:40:35.780Z,100325.16
2018-12-25T11:45:41.674Z,100336.47
2018-12-25T11:50:47.488Z,100316.63
2018-12-25T11:55:54.286Z,100322.75
2018-12-25T12:01:00.152Z,100327.69
2018-12-25T12:06:10.915Z,100328.97
2018-12-25T12:11:16.727Z,100340.25
2018-12-25T12:16:22.613Z,100334.41
2018-12-25T12:21:28.505Z,100329.76
2018-12-25T12:26:34.811Z,100323.50
2018-12-25T12:31:40.591Z,100330.03
2018-12-25T12:36:47.053Z,100321.44
2018-12-25T12:41:52.974Z,100319.43
2018-12-25T12:46:59.306Z,100333.67
2018-12-25T12:52:08.410Z,100342.55
2018-12-25T12:57:14.202Z,100346.95
2018-12-25T13:02:23.686Z,100332.23
2018-12-25T13:07:29.748Z,100339.83
2018-12-25T13:12:37.803Z,100350.41
2018-12-25T13:17:45.489Z,100347.89
2018-12-25T13:22:54.233Z,100345.69
2018-12-25T13:28:00.194Z,100350.88
2018-12-25T13:33:08.675Z,100345.02
2018-12-25T13:38:15.050Z,100338.29
2018-12-25T13:43:21.108Z,100361.53
2018-12-25T13:48:26.983Z,100366.80
2018-12-25T13:53:32.808Z,100380.09
2018-12-25T13:58:38.985Z,100380.55
2018-12-25T14:08:49.758Z,100385.14
2018-12-25T14:13:55.517Z,100404.28
2018-12-25T14:19:01.405Z,100404.28
2018-12-25T14:24:07.347Z,100413.91
2018-12-25T14:29:15.109Z,100418.68
2018-12-25T14:34:21.209Z,100424.56
2018-12-25T14:39:27.659Z,100420.02
2018-12-25T14:44:33.482Z,100409.05
2018-12-25T14:49:42.284Z,100405.69
2018-12-25T14:54:48.484Z,100411.86
2018-12-25T14:59:54.328Z,100404.21
2018-12-25T15:05:00.279Z,100407.69
2018-12-25T15:10:11.710Z,100420.50
2018-12-25T15:15:17.557Z,100420.36
2018-12-25T15:20:23.413Z,100426.30
2018-12-25T15:25:29.263Z,100413.58
2018-12-25T15:30:37.371Z,100426.93
2018-12-25T15:35:44.978Z,100413.34
2018-12-25T15:40:52.601Z,100415.36
2018-12-25T15:45:58.476Z,100409.34
2018-12-25T15:51:05.395Z,100414.96
2018-12-25T15:56:11.233Z,100413.58
2018-12-25T16:01:17.142Z,100409.69
2018-12-25T16:06:23.014Z,100413.20
2018-12-25T16:11:28.987Z,100417.16
2018-12-25T16:16:34.823Z,100412.30
2018-12-25T16:21:40.850Z,100412.88
2018-12-25T16:26:46.598Z,100415.80
2018-12-25T16:31:52.488Z,100415.04
2018-12-25T16:36:58.461Z,100405.96
2018-12-25T16:42:05.672Z,100408.56
2018-12-25T16:47:11.573Z,100409.98
2018-12-25T16:57:25.606Z,100427.16
2018-12-25T17:02:32.034Z,100427.30
2018-12-25T17:07:39.332Z,100436.35
2018-12-25T17:12:45.133Z,100431.30
2018-12-25T17:17:51.167Z,100427.14
2018-12-25T17:22:57.308Z,100433.96
2018-12-25T17:28:03.413Z,100434.38
2018-12-25T17:33:09.673Z,100436.77
2018-12-25T17:38:15.986Z,100419.91
2018-12-25T17:43:22.535Z,100425.78
2018-12-25T17:48:28.364Z,100426.64
2018-12-25T17:53:36.695Z,100419.95
2018-12-25T17:58:42.613Z,100430.02
2018-12-25T18:08:53.214Z,100434.69
2018-12-25T18:13:59.382Z,100430.56
2018-12-25T18:19:05.426Z,100439.78
2018-12-25T18:24:18.929Z,100443.11
2018-12-25T18:29:18.877Z,100448.17
2018-12-25T18:34:26.004Z,100450.56
2018-12-25T18:39:31.848Z,100456.53
2018-12-25T18:44:38.219Z,100468.84
2018-12-25T18:49:45.386Z,100474.90
2018-12-25T18:54:53.687Z,100473.94
2018-12-25T19:00:02.308Z,100473.93
2018-12-25T19:05:09.916Z,100482.50
2018-12-25T19:10:19.107Z,100474.86
2018-12-25T19:15:32.527Z,100485.59
2018-12-25T19:20:41.042Z,100478.40
2018-12-25T19:25:46.854Z,100478.86
2018-12-25T19:30:52.765Z,100473.38
2018-12-25T19:35:58.581Z,100474.13
2018-12-25T19:41:06.101Z,100473.50
2018-12-25T19:46:15.278Z,100466.71
2018-12-25T19:51:25.608Z,100459.70
2018-12-25T19:56:31.536Z,100454.27
2018-12-25T20:01:37.907Z,100456.17
2018-12-25T20:07:30.343Z,100457.63
2018-12-25T20:13:12.823Z,100459.42
2018-12-25T20:18:50.680Z,100458.43
2018-12-25T20:24:52.657Z,100456.44
2018-12-25T20:30:41.054Z,100454.24
2018-12-25T20:36:26.536Z,100443.83
2018-12-25T20:42:11.898Z,100438.55
2018-12-25T20:47:48.731Z,100444.56
2018-12-25T20:53:33.019Z,100435.51
2018-12-25T20:59:13.789Z,100439.08
2018-12-25T21:05:06.133Z,100436.88
2018-12-25T21:10:55.956Z,100437.36
2018-12-25T21:17:01.792Z,100437.36
2018-12-25T21:22:29.445Z,100431.13
2018-12-25T21:27:33.819Z,100420.02
2018-12-25T21:32:42.758Z,100430.02
2018-12-25T21:37:51.732Z,100427.30
2018-12-25T21:43:06.844Z,100438.11
2018-12-25T21:48:12.000Z,100422.43
2018-12-25T21:53:18.602Z,100427.72
2018-12-25T21:58:26.635Z,100426.22
2018-12-25T22:03:32.925Z,100428.84
2018-12-25T22:08:38.892Z,100417.36
2018-12-25T22:13:45.170Z,100422.97
2018-12-25T22:18:51.392Z,100403.55
2018-12-25T22:23:57.466Z,100401.55
2018-12-25T22:29:04.804Z,100406.02
2018-12-25T22:34:10.564Z,100388.91
2018-12-25T22:39:19.471Z,100387.67
2018-12-25T22:44:25.866Z,100382.55
2018-12-25T22:49:32.362Z,100385.74
2018-12-25T22:54:38.513Z,100370.48
2018-12-25T22:59:44.486Z,100367.70
2018-12-25T23:04:51.434Z,100356.63
2018-12-25T23:09:59.062Z,100360.36
2018-12-25T23:15:06.814Z,100354.33
2018-12-25T23:20:12.965Z,100350.69
2018-12-25T23:25:19.091Z,100339.72
2018-12-25T23:30:25.080Z,100348.92
2018-12-25T23:35:30.933Z,100354.12
2018-12-25T23:40:37.075Z,100342.92
2018-12-25T23:45:43.332Z,100355.20
2018-12-25T23:50:53.770Z,100363.40
